createdAt,value
2023-08-20T00:01:24.487Z,95887.00
2023-08-20T00:03:53.628Z,95895.28
2023-08-20T00:06:22.534Z,95907.34
2023-08-20T00:08:50.754Z,95907.81
2023-08-20T00:11:18.738Z,95908.13
2023-08-20T00:13:46.491Z,95907.50
2023-08-20T00:16:16.372Z,95896.63
2023-08-20T00:18:45.000Z,95896.06
2023-08-20T00:21:13.390Z,95888.75
2023-08-20T00:23:41.564Z,95893.84
2023-08-20T00:26:10.191Z,95895.13
2023-08-20T00:28:39.717Z,95905.34
2023-08-20T00:31:07.703Z,95902.03
2023-08-20T00:33:36.795Z,95906.91
2023-08-20T00:36:04.765Z,95901.81
2023-08-20T00:38:33.916Z,95897.47
2023-08-20T00:41:03.373Z,95894.22
2023-08-20T00:43:31.180Z,95904.16
2023-08-20T00:46:01.168Z,95907.91
2023-08-20T00:48:29.029Z,95903.88
2023-08-20T00:50:58.063Z,95911.13
2023-08-20T00:53:28.387Z,95911.63
2023-08-20T00:55:56.965Z,95912.69
2023-08-20T00:58:25.011Z,95918.88
2023-08-20T01:00:52.695Z,95915.53
2023-08-20T01:03:20.625Z,95919.91
2023-08-20T01:05:55.793Z,95915.59
2023-08-20T01:08:33.601Z,95912.78
2023-08-20T01:11:06.014Z,95917.34
2023-08-20T01:13:35.444Z,95915.56
2023-08-20T01:16:03.219Z,95914.50
2023-08-20T01:18:31.241Z,95914.94
2023-08-20T01:21:03.499Z,95913.78
2023-08-20T01:23:49.777Z,95912.97
2023-08-20T01:26:50.278Z,95915.66
2023-08-20T01:29:19.358Z,95921.63
2023-08-20T01:31:47.559Z,95921.09
2023-08-20T01:34:15.408Z,95921.75
2023-08-20T01:36:43.233Z,95920.44
2023-08-20T01:39:12.324Z,95922.88
2023-08-20T01:41:40.104Z,95921.00
2023-08-20T01:44:08.614Z,95926.13
2023-08-20T01:46:37.897Z,95927.75
2023-08-20T01:49:06.086Z,95931.03
2023-08-20T01:51:33.917Z,95930.22
2023-08-20T01:54:01.652Z,95927.75
2023-08-20T01:56:29.437Z,95925.06
2023-08-20T01:58:57.186Z,95925.31
2023-08-20T02:01:24.976Z,95920.19
2023-08-20T02:03:54.062Z,95919.28
2023-08-20T02:06:21.992Z,95924.34
2023-08-20T02:08:49.652Z,95921.09
2023-08-20T02:11:17.688Z,95932.34
2023-08-20T02:13:46.652Z,95931.75
2023-08-20T02:16:14.433Z,95933.06
2023-08-20T02:18:42.208Z,95936.00
2023-08-20T02:21:11.229Z,95939.81
2023-08-20T02:23:39.070Z,95939.31
2023-08-20T02:26:08.275Z,95943.88
2023-08-20T02:28:36.262Z,95940.28
2023-08-20T02:31:06.761Z,95941.47
2023-08-20T02:33:34.522Z,95941.00
2023-08-20T02:36:03.818Z,95947.69
2023-08-20T02:38:33.046Z,95942.56
2023-08-20T02:41:00.997Z,95944.94
2023-08-20T02:43:28.645Z,95937.47
2023-08-20T02:45:56.685Z,95943.31
2023-08-20T02:48:27.902Z,95950.31
2023-08-20T02:50:55.965Z,95949.50
2023-08-20T02:53:24.376Z,95943.88
2023-08-20T02:55:53.484Z,95947.38
2023-08-20T02:58:21.197Z,95943.88
2023-08-20T03:00:48.880Z,95946.56
2023-08-20T03:03:16.773Z,95951.44
2023-08-20T03:05:45.399Z,95954.38
2023-08-20T03:08:13.238Z,95953.56
2023-08-20T03:10:40.893Z,95952.97
2023-08-20T03:13:10.504Z,95953.56
2023-08-20T03:15:38.356Z,95952.41
2023-08-20T03:18:07.455Z,95955.31
2023-08-20T03:20:35.742Z,95956.38
2023-08-20T03:23:03.753Z,95951.81
2023-08-20T03:25:31.467Z,95950.13
2023-08-20T03:27:59.447Z,95955.63
2023-08-20T03:30:28.815Z,95964.34
2023-08-20T03:32:57.083Z,95957.84
2023-08-20T03:35:25.584Z,95962.03
2023-08-20T03:37:53.425Z,95960.31
2023-08-20T03:40:21.082Z,95959.75
2023-08-20T03:42:48.997Z,95956.63
2023-08-20T03:45:18.827Z,95957.06
2023-08-20T03:47:48.518Z,95957.06
2023-08-20T03:50:18.423Z,95961.16
2023-08-20T03:52:46.825Z,95948.81
2023-08-20T03:55:14.691Z,95955.00
2023-08-20T03:57:42.368Z,95952.50
2023-08-20T04:00:11.088Z,95956.25
2023-08-20T04:02:45.761Z,95958.13
2023-08-20T04:05:15.045Z,95958.03
2023-08-20T04:07:42.724Z,95960.34
2023-08-20T04:10:11.148Z,95955.34
2023-08-20T04:12:38.811Z,95968.09
2023-08-20T04:15:07.232Z,95964.38
2023-08-20T04:17:35.310Z,95967.75
2023-08-20T04:20:08.814Z,95973.19
2023-08-20T04:22:38.309Z,95975.41
2023-08-20T04:25:07.141Z,95980.50
2023-08-20T04:27:35.468Z,95983.25
2023-08-20T04:30:03.950Z,95976.84
2023-08-20T04:32:31.794Z,95966.66
2023-08-20T04:35:00.581Z,95982.28
2023-08-20T04:37:28.760Z,95979.72
2023-08-20T04:40:00.012Z,95975.66
2023-08-20T04:42:30.304Z,95982.44
2023-08-20T04:44:58.764Z,95977.09
2023-08-20T04:47:28.023Z,95976.72
2023-08-20T04:49:56.026Z,95981.09
2023-08-20T04:52:24.059Z,95985.28
2023-08-20T04:54:51.826Z,95988.06
2023-08-20T04:57:24.604Z,95987.94
2023-08-20T04:59:52.565Z,95998.97
2023-08-20T05:02:28.408Z,96000.41
2023-08-20T05:05:00.910Z,96001.03
2023-08-20T05:07:29.410Z,96000.00
2023-08-20T05:09:57.390Z,95991.66
2023-08-20T05:12:26.997Z,95995.84
2023-08-20T05:14:54.778Z,95993.41
2023-08-20T05:17:23.192Z,95993.19
2023-08-20T05:19:50.982Z,95992.38
2023-08-20T05:22:18.807Z,95998.28
2023-08-20T05:24:46.723Z,95996.47
2023-08-20T05:27:18.661Z,95996.97
2023-08-20T05:29:50.465Z,95996.84
2023-08-20T05:32:19.678Z,96005.81
2023-08-20T05:34:48.423Z,95995.88
2023-08-20T05:37:16.300Z,95996.78
2023-08-20T05:39:46.248Z,95993.97
2023-08-20T05:42:14.841Z,95988.97
2023-08-20T05:44:48.229Z,95990.53
2023-08-20T05:47:22.403Z,95987.13
2023-08-20T05:49:50.549Z,95996.13
2023-08-20T05:52:18.843Z,95984.59
2023-08-20T05:54:46.565Z,95994.69
2023-08-20T05:57:14.493Z,96006.13
2023-08-20T05:59:43.415Z,96002.63
2023-08-20T06:02:11.415Z,96003.84
2023-08-20T06:04:40.459Z,96006.28
2023-08-20T06:07:08.270Z,96009.19
2023-08-20T06:09:36.144Z,96004.72
2023-08-20T06:12:03.924Z,96004.88
2023-08-20T06:14:31.573Z,96010.09
2023-08-20T06:16:59.451Z,96009.28
2023-08-20T06:19:28.011Z,96007.63
2023-08-20T06:21:57.247Z,96017.41
2023-08-20T06:24:24.925Z,96013.59
2023-08-20T06:26:53.356Z,96014.81
2023-08-20T06:29:22.769Z,96024.63
2023-08-20T06:31:51.516Z,96019.28
2023-08-20T06:34:19.381Z,96019.66
2023-08-20T06:36:47.207Z,96027.03
2023-08-20T06:39:16.352Z,96024.84
2023-08-20T06:41:44.145Z,96020.69
2023-08-20T06:44:21.367Z,96021.38
2023-08-20T06:46:49.061Z,96018.91
2023-08-20T06:49:16.854Z,96027.13
2023-08-20T06:51:44.545Z,96028.75
2023-08-20T06:54:12.390Z,96028.00
2023-08-20T06:56:41.405Z,96035.44
2023-08-20T06:59:09.153Z,96037.72
2023-08-20T07:01:36.860Z,96034.53
2023-08-20T07:04:04.921Z,96037.28
2023-08-20T07:06:32.806Z,96042.22
2023-08-20T07:09:00.697Z,96035.56
2023-08-20T07:11:28.573Z,96038.03
2023-08-20T07:13:57.858Z,96030.75
2023-08-20T07:16:25.682Z,96036.69
2023-08-20T07:18:54.280Z,96032.13
2023-08-20T07:21:22.028Z,96028.91
2023-08-20T07:23:49.851Z,96027.84
2023-08-20T07:26:17.542Z,96026.75
2023-08-20T07:29:01.043Z,96026.44
2023-08-20T07:31:32.012Z,96026.41
2023-08-20T07:36:32.634Z,96016.34
2023-08-20T07:39:02.678Z,96027.91
2023-08-20T07:41:31.456Z,96019.41
2023-08-20T07:43:59.136Z,96017.16
2023-08-20T07:46:27.100Z,96032.22
2023-08-20T07:48:56.133Z,96033.97
2023-08-20T07:51:23.861Z,96029.28
2023-08-20T07:53:51.536Z,96037.31
2023-08-20T07:56:19.531Z,96030.25
2023-08-20T07:58:47.229Z,96037.44
2023-08-20T08:01:15.355Z,96037.59
2023-08-20T08:03:43.214Z,96043.66
2023-08-20T08:06:12.476Z,96044.41
2023-08-20T08:08:44.403Z,96034.06
2023-08-20T08:11:12.170Z,96036.84
2023-08-20T08:13:39.975Z,96047.38
2023-08-20T08:16:07.781Z,96056.00
2023-08-20T08:18:35.469Z,96055.78
2023-08-20T08:21:03.252Z,96059.50
2023-08-20T08:23:32.298Z,96067.78
2023-08-20T08:25:59.980Z,96064.63
2023-08-20T08:28:27.762Z,96054.50
2023-08-20T08:30:55.515Z,96055.25
2023-08-20T08:33:24.792Z,96056.63
2023-08-20T08:35:52.721Z,96062.78
2023-08-20T08:38:20.396Z,96056.22
2023-08-20T08:40:50.513Z,96061.19
2023-08-20T08:43:18.884Z,96060.78
2023-08-20T08:45:49.298Z,96059.88
2023-08-20T08:48:18.095Z,96060.69
2023-08-20T08:50:45.840Z,96060.44
2023-08-20T08:53:15.413Z,96060.97
2023-08-20T08:55:43.891Z,96058.03
2023-08-20T08:58:14.302Z,96062.06
2023-08-20T09:00:42.376Z,96064.31
2023-08-20T09:03:10.250Z,96069.06
2023-08-20T09:05:49.554Z,96065.88
2023-08-20T09:08:23.683Z,96064.56
2023-08-20T09:10:53.796Z,96060.91
2023-08-20T09:13:26.406Z,96058.00
2023-08-20T09:15:54.545Z,96066.22
2023-08-20T09:18:22.653Z,96070.28
2023-08-20T09:20:51.711Z,96067.19
2023-08-20T09:23:19.381Z,96061.16
2023-08-20T09:25:47.446Z,96059.50
2023-08-20T09:28:15.936Z,96058.16
2023-08-20T09:30:57.121Z,96059.69
2023-08-20T09:33:24.881Z,96060.34
2023-08-20T09:35:53.180Z,96054.56
2023-08-20T09:38:22.142Z,96061.94
2023-08-20T09:40:52.200Z,96056.75
2023-08-20T09:43:20.621Z,96057.78
2023-08-20T09:45:50.544Z,96051.19
2023-08-20T09:48:22.297Z,96047.06
2023-08-20T09:50:53.768Z,96047.03
2023-08-20T09:53:28.228Z,96048.41
2023-08-20T09:56:01.194Z,96046.63
2023-08-20T09:58:29.733Z,96040.22
2023-08-20T10:00:59.248Z,96045.09
2023-08-20T10:03:27.152Z,96045.38
2023-08-20T10:05:56.031Z,96042.97
2023-08-20T10:08:23.896Z,96036.13
2023-08-20T10:10:51.609Z,96042.00
2023-08-20T10:13:19.844Z,96041.44
2023-08-20T10:15:48.027Z,96040.16
2023-08-20T10:18:17.283Z,96038.22
2023-08-20T10:20:45.015Z,96038.19
2023-08-20T10:23:14.363Z,96036.38
2023-08-20T10:25:45.168Z,96042.66
2023-08-20T10:28:15.760Z,96047.72
2023-08-20T10:31:11.083Z,96033.91
2023-08-20T10:33:41.473Z,96035.75
2023-08-20T10:36:11.655Z,96037.03
2023-08-20T10:38:40.283Z,96036.16
2023-08-20T10:41:09.235Z,96044.31
2023-08-20T10:43:38.914Z,96041.41
2023-08-20T10:46:15.374Z,96049.16
2023-08-20T10:48:45.754Z,96039.44
2023-08-20T10:51:15.346Z,96042.81
2023-08-20T10:53:44.608Z,96044.22
2023-08-20T10:56:14.590Z,96039.84
2023-08-20T10:58:47.911Z,96037.09
2023-08-20T11:01:22.016Z,96039.16
2023-08-20T11:03:52.268Z,96040.94
2023-08-20T11:06:20.875Z,96037.66
2023-08-20T11:08:48.754Z,96039.34
2023-08-20T11:11:17.389Z,96038.25
2023-08-20T11:13:45.425Z,96032.47
2023-08-20T11:16:13.545Z,96033.84
2023-08-20T11:18:41.409Z,96030.00
2023-08-20T11:21:10.615Z,96032.69
2023-08-20T11:23:40.888Z,96033.41
2023-08-20T11:26:09.933Z,96027.94
2023-08-20T11:28:37.795Z,96030.06
2023-08-20T11:31:05.712Z,96029.16
2023-08-20T11:33:33.579Z,96027.53
2023-08-20T11:36:01.388Z,96028.25
2023-08-20T11:38:31.452Z,96025.50
2023-08-20T11:41:00.654Z,96027.50
2023-08-20T11:43:29.416Z,96031.19
2023-08-20T11:45:57.823Z,96016.97
2023-08-20T11:48:25.731Z,96014.22
2023-08-20T11:50:53.501Z,96008.47
2023-08-20T11:53:24.286Z,96006.63
2023-08-20T11:55:53.349Z,96007.03
2023-08-20T11:58:22.565Z,96009.06
2023-08-20T12:00:51.858Z,96003.75
2023-08-20T12:03:21.748Z,96000.97
2023-08-20T12:05:49.493Z,95997.50
2023-08-20T12:08:18.977Z,96003.13
2023-08-20T12:10:46.726Z,95999.91
2023-08-20T12:13:15.917Z,95997.25
2023-08-20T12:15:43.600Z,96001.44
2023-08-20T12:18:11.670Z,96001.34
2023-08-20T12:20:39.554Z,95999.19
2023-08-20T12:23:08.840Z,95996.38
2023-08-20T12:25:37.836Z,95998.66
2023-08-20T12:28:06.816Z,95999.34
2023-08-20T12:30:38.453Z,95991.28
2023-08-20T12:33:07.870Z,95987.56
2023-08-20T12:35:36.124Z,95985.81
2023-08-20T12:38:03.832Z,95983.75
2023-08-20T12:40:33.581Z,95988.09
2023-08-20T12:43:01.301Z,95978.91
2023-08-20T12:45:29.005Z,95986.31
2023-08-20T12:48:00.730Z,95974.16
2023-08-20T12:50:30.400Z,95975.75
2023-08-20T12:52:58.183Z,95975.63
2023-08-20T12:55:26.235Z,95968.72
2023-08-20T12:57:55.991Z,95974.09
2023-08-20T13:00:26.111Z,95974.56
2023-08-20T13:02:54.552Z,95969.34
2023-08-20T13:05:24.851Z,95966.44
2023-08-20T13:07:53.078Z,95960.94
2023-08-20T13:10:22.467Z,95967.22
2023-08-20T13:12:52.304Z,95964.94
2023-08-20T13:15:21.467Z,95964.94
2023-08-20T13:17:51.504Z,95960.25
2023-08-20T13:20:22.208Z,95956.38
2023-08-20T13:22:51.585Z,95963.28
2023-08-20T13:25:19.512Z,95957.13
2023-08-20T13:27:47.425Z,95952.50
2023-08-20T13:30:15.474Z,95947.81
2023-08-20T13:32:43.630Z,95953.44
2023-08-20T13:35:11.364Z,95946.34
2023-08-20T13:37:39.300Z,95949.41
2023-08-20T13:40:10.848Z,95949.41
2023-08-20T13:42:39.041Z,95944.09
2023-08-20T13:45:08.386Z,95944.09
2023-08-20T13:47:36.223Z,95947.28
2023-08-20T13:50:05.635Z,95936.31
2023-08-20T13:52:33.857Z,95942.94
2023-08-20T13:55:02.010Z,95939.72
2023-08-20T13:57:31.165Z,95937.78
2023-08-20T14:00:00.203Z,95940.19
2023-08-20T14:02:27.994Z,95938.03
2023-08-20T14:04:55.827Z,95930.47
2023-08-20T14:07:24.476Z,95934.03
2023-08-20T14:09:52.322Z,95930.69
2023-08-20T14:12:21.001Z,95936.06
2023-08-20T14:14:50.165Z,95935.09
2023-08-20T14:17:18.215Z,95925.81
2023-08-20T14:19:46.030Z,95927.66
2023-08-20T14:22:13.682Z,95932.44
2023-08-20T14:24:41.651Z,95921.44
2023-08-20T14:27:09.414Z,95922.78
2023-08-20T14:29:37.223Z,95917.03
2023-08-20T14:32:06.634Z,95918.91
2023-08-20T14:34:34.932Z,95918.53
2023-08-20T14:37:02.640Z,95920.25
2023-08-20T14:39:32.558Z,95922.13
2023-08-20T14:42:01.129Z,95920.25
2023-08-20T14:44:29.510Z,95920.69
2023-08-20T14:46:57.248Z,95924.56
2023-08-20T14:49:27.146Z,95910.84
2023-08-20T14:52:02.999Z,95912.31
2023-08-20T14:54:37.722Z,95920.34
2023-08-20T14:57:05.637Z,95914.09
2023-08-20T14:59:33.290Z,95917.13
2023-08-20T15:02:01.021Z,95907.63
2023-08-20T15:04:30.044Z,95912.13
2023-08-20T15:06:57.954Z,95914.59
2023-08-20T15:09:25.676Z,95906.72
2023-08-20T15:11:53.457Z,95909.00
2023-08-20T15:14:21.123Z,95900.31
2023-08-20T15:16:49.385Z,95905.84
2023-08-20T15:19:17.137Z,95902.50
2023-08-20T15:21:46.374Z,95901.53
2023-08-20T15:24:14.050Z,95897.81
2023-08-20T15:26:42.460Z,95897.25
2023-08-20T15:29:10.120Z,95896.81
2023-08-20T15:31:37.930Z,95889.41
2023-08-20T15:34:06.318Z,95894.03
2023-08-20T15:36:34.281Z,95895.91
2023-08-20T15:39:03.787Z,95901.34
2023-08-20T15:41:31.585Z,95889.63
2023-08-20T15:43:59.253Z,95905.94
2023-08-20T15:46:27.078Z,95892.78
2023-08-20T15:48:55.130Z,95894.53
2023-08-20T15:51:22.844Z,95886.56
2023-08-20T15:53:50.793Z,95893.91
2023-08-20T15:56:19.764Z,95890.53
2023-08-20T15:58:47.429Z,95885.38
2023-08-20T16:01:15.202Z,95895.66
2023-08-20T16:03:43.590Z,95889.19
2023-08-20T16:06:11.609Z,95882.94
2023-08-20T16:08:39.439Z,95891.75
2023-08-20T16:11:07.177Z,95888.00
2023-08-20T16:13:36.201Z,95882.84
2023-08-20T16:16:03.953Z,95886.28
2023-08-20T16:18:31.699Z,95888.22
2023-08-20T16:20:59.335Z,95885.53
2023-08-20T16:23:27.147Z,95891.19
2023-08-20T16:25:54.816Z,95888.91
2023-08-20T16:28:22.593Z,95888.19
2023-08-20T16:30:53.217Z,95884.25
2023-08-20T16:33:23.896Z,95892.22
2023-08-20T16:35:52.043Z,95891.47
2023-08-20T16:38:19.742Z,95892.94
2023-08-20T16:40:47.970Z,95887.22
2023-08-20T16:43:15.805Z,95889.97
2023-08-20T16:45:43.495Z,95898.19
2023-08-20T16:48:12.563Z,95895.69
2023-08-20T16:50:40.390Z,95894.59
2023-08-20T16:53:08.263Z,95891.06
2023-08-20T16:55:36.048Z,95891.97
2023-08-20T16:58:04.025Z,95887.22
2023-08-20T17:00:31.700Z,95887.44
2023-08-20T17:02:59.527Z,95892.44
2023-08-20T17:05:28.590Z,95896.28
2023-08-20T17:07:56.299Z,95900.16
2023-08-20T17:10:24.847Z,95886.44
2023-08-20T17:12:53.165Z,95902.78
2023-08-20T17:15:21.698Z,95895.16
2023-08-20T17:17:50.049Z,95896.16
2023-08-20T17:20:17.902Z,95897.81
2023-08-20T17:22:46.963Z,95893.66
2023-08-20T17:25:14.753Z,95886.53
2023-08-20T17:27:42.449Z,95900.84
2023-08-20T17:30:13.083Z,95886.78
2023-08-20T17:32:41.274Z,95891.88
2023-08-20T17:35:10.095Z,95887.75
2023-08-20T17:37:38.183Z,95895.34
2023-08-20T17:40:11.345Z,95906.88
2023-08-20T17:42:39.979Z,95906.31
2023-08-20T17:45:09.584Z,95905.06
2023-08-20T17:47:38.201Z,95901.56
2023-08-20T17:50:06.439Z,95912.16
2023-08-20T17:52:34.449Z,95911.13
2023-08-20T17:55:04.049Z,95906.91
2023-08-20T17:57:33.041Z,95915.97
2023-08-20T18:00:00.966Z,95922.78
2023-08-20T18:02:28.610Z,95914.22
2023-08-20T18:04:56.395Z,95926.50
2023-08-20T18:07:24.112Z,95917.69
2023-08-20T18:09:51.908Z,95923.03
2023-08-20T18:12:19.603Z,95931.28
2023-08-20T18:14:48.830Z,95929.69
2023-08-20T18:17:16.526Z,95930.00
2023-08-20T18:19:44.327Z,95928.53
2023-08-20T18:22:12.265Z,95932.84
2023-08-20T18:24:39.937Z,95937.28
2023-08-20T18:27:07.901Z,95939.13
2023-08-20T18:29:35.598Z,95939.97
2023-08-20T18:32:05.533Z,95944.06
2023-08-20T18:34:33.192Z,95936.97
2023-08-20T18:37:01.130Z,95956.50
2023-08-20T18:39:28.924Z,95955.59
2023-08-20T18:41:57.000Z,95963.91
2023-08-20T18:44:24.748Z,95968.41
2023-08-20T18:46:52.559Z,95970.19
2023-08-20T18:49:21.637Z,95971.53
2023-08-20T18:51:49.619Z,95980.13
2023-08-20T18:54:17.298Z,95973.50
2023-08-20T18:56:45.118Z,95974.91
2023-08-20T18:59:12.990Z,95988.03
2023-08-20T19:01:40.856Z,95987.06
2023-08-20T19:04:08.593Z,95990.47
2023-08-20T19:06:37.798Z,95991.50
2023-08-20T19:09:07.213Z,95989.69
2023-08-20T19:11:35.448Z,95994.63
2023-08-20T19:14:03.251Z,95998.50
2023-08-20T19:16:31.016Z,96004.53
2023-08-20T19:18:58.747Z,96001.47
2023-08-20T19:21:26.896Z,95999.38
2023-08-20T19:23:56.765Z,96007.09
2023-08-20T19:26:24.594Z,96008.81
2023-08-20T19:28:52.245Z,96012.63
2023-08-20T19:31:22.691Z,96018.59
2023-08-20T19:33:50.772Z,96014.81
2023-08-20T19:36:18.493Z,96018.31
2023-08-20T19:38:46.204Z,96018.03
2023-08-20T19:41:15.229Z,96015.88
2023-08-20T19:43:42.927Z,96016.16
2023-08-20T19:46:10.667Z,96015.91
2023-08-20T19:48:38.455Z,96027.81
2023-08-20T19:51:06.425Z,96022.16
2023-08-20T19:53:34.101Z,96024.06
2023-08-20T19:56:01.772Z,96012.69
2023-08-20T19:58:30.877Z,96020.81
2023-08-20T20:00:58.648Z,96015.69
2023-08-20T20:03:26.968Z,96017.59
2023-08-20T20:05:54.692Z,96015.41
2023-08-20T20:08:24.375Z,96018.91
2023-08-20T20:10:54.020Z,96027.31
2023-08-20T20:13:22.303Z,96027.81
2023-08-20T20:15:51.394Z,96031.06
2023-08-20T20:18:19.070Z,96037.50
2023-08-20T20:20:57.238Z,96043.97
2023-08-20T20:23:25.210Z,96034.69
2023-08-20T20:25:53.014Z,96039.56
2023-08-20T20:28:20.815Z,96050.31
2023-08-20T20:30:48.944Z,96047.84
2023-08-20T20:33:18.066Z,96056.22
2023-08-20T20:35:45.893Z,96054.06
2023-08-20T20:38:13.538Z,96055.69
2023-08-20T20:40:43.937Z,96053.75
2023-08-20T20:43:11.682Z,96048.56
2023-08-20T20:45:43.345Z,96049.09
2023-08-20T20:48:11.041Z,96051.22
2023-08-20T20:50:40.270Z,96048.81
2023-08-20T20:53:08.532Z,96048.81
2023-08-20T20:55:36.320Z,96046.91
2023-08-20T20:58:05.105Z,96053.88
2023-08-20T21:00:33.007Z,96049.56
2023-08-20T21:03:00.844Z,96049.47
2023-08-20T21:05:28.619Z,96049.47
2023-08-20T21:07:57.627Z,96054.59
2023-08-20T21:10:25.430Z,96049.69
2023-08-20T21:12:53.108Z,96054.59
2023-08-20T21:15:20.767Z,96054.59
2023-08-20T21:17:48.457Z,96052.69
2023-08-20T21:20:16.130Z,96050.56
2023-08-20T21:22:43.912Z,96054.31
2023-08-20T21:25:12.910Z,96055.41
2023-08-20T21:27:40.610Z,96054.28
2023-08-20T21:30:09.721Z,96063.44
2023-08-20T21:32:37.654Z,96058.59
2023-08-20T21:35:06.091Z,96058.06
2023-08-20T21:37:33.803Z,96059.66
2023-08-20T21:40:01.515Z,96057.09
2023-08-20T21:42:30.678Z,96060.47
2023-08-20T21:44:58.324Z,96059.69
2023-08-20T21:47:27.632Z,96057.03
2023-08-20T21:49:55.438Z,96051.66
2023-08-20T21:52:24.410Z,96044.66
2023-08-20T21:54:52.324Z,96051.94
2023-08-20T21:57:21.035Z,96053.06
2023-08-20T21:59:51.059Z,96050.91
2023-08-20T22:02:19.753Z,96043.31
2023-08-20T22:04:47.508Z,96051.41
2023-08-20T22:07:15.184Z,96044.66
2023-08-20T22:09:42.841Z,96043.84
2023-08-20T22:12:12.037Z,96047.63
2023-08-20T22:14:39.770Z,96049.50
2023-08-20T22:17:09.560Z,96057.03
2023-08-20T22:19:37.656Z,96059.88
2023-08-20T22:22:05.373Z,96063.91
2023-08-20T22:24:33.160Z,96065.00
2023-08-20T22:27:00.820Z,96060.41
2023-08-20T22:29:28.509Z,96062.56
2023-08-20T22:31:56.185Z,96063.09
2023-08-20T22:34:25.355Z,96060.13
2023-08-20T22:36:53.013Z,96067.94
2023-08-20T22:39:21.121Z,96057.72
2023-08-20T22:41:48.791Z,96069.63
2023-08-20T22:44:16.796Z,96056.69
2023-08-20T22:46:44.443Z,96064.69
2023-08-20T22:49:12.102Z,96061.22
2023-08-20T22:51:41.089Z,96058.72
2023-08-20T22:54:08.927Z,96062.38
2023-08-20T22:56:36.589Z,96059.06
2023-08-20T22:59:04.453Z,96057.47
2023-08-20T23:01:32.792Z,96057.38
2023-08-20T23:04:00.563Z,96063.28
2023-08-20T23:06:28.592Z,96057.22
2023-08-20T23:08:57.871Z,96063.16
2023-08-20T23:11:25.540Z,96063.16
2023-08-20T23:13:53.272Z,96062.09
2023-08-20T23:16:21.071Z,96054.53
2023-08-20T23:18:48.880Z,96056.66
2023-08-20T23:21:16.576Z,96058.25
2023-08-20T23:23:44.324Z,96050.59
2023-08-20T23:26:13.366Z,96059.75
2023-08-20T23:28:41.067Z,96054.13
2023-08-20T23:31:09.488Z,96050.31
2023-08-20T23:33:37.209Z,96047.47
2023-08-20T23:36:05.267Z,96042.69
2023-08-20T23:38:38.979Z,96045.66
2023-08-20T23:41:06.787Z,96040.28
2023-08-20T23:43:35.842Z,96047.28
2023-08-20T23:46:03.586Z,96051.56
2023-08-20T23:48:31.281Z,96052.94
2023-08-20T23:50:59.071Z,96055.88
2023-08-20T23:53:29.169Z,96055.34
2023-08-20T23:55:56.957Z,96053.13
2023-08-20T23:58:24.603Z,96051.25
